createdAt,value
2023-05-18T00:01:19.315Z,3.80
2023-05-18T00:03:47.143Z,4.47
2023-05-18T00:06:14.650Z,3.47
2023-05-18T00:08:42.517Z,3.90
2023-05-18T00:11:10.484Z,3.93
2023-05-18T00:13:37.979Z,3.97
2023-05-18T00:16:05.417Z,4.50
2023-05-18T00:18:36.891Z,3.97
2023-05-18T00:21:04.610Z,4.17
2023-05-18T00:23:33.310Z,5.17
2023-05-18T00:26:01.296Z,3.47
2023-05-18T00:28:29.502Z,4.60
2023-05-18T00:30:57.216Z,4.60
2023-05-18T00:33:24.573Z,4.60
2023-05-18T00:35:51.977Z,4.80
2023-05-18T00:38:19.424Z,4.00
2023-05-18T00:40:46.834Z,3.50
2023-05-18T00:43:14.200Z,4.10
2023-05-18T00:45:41.620Z,4.33
2023-05-18T00:48:09.052Z,4.13
2023-05-18T00:50:36.435Z,4.40
2023-05-18T00:53:03.794Z,3.77
2023-05-18T00:55:31.900Z,3.57
2023-05-18T00:58:02.148Z,4.27
2023-05-18T01:00:29.648Z,3.90
2023-05-18T01:02:57.399Z,4.10
2023-05-18T01:05:25.023Z,4.57
2023-05-18T01:07:52.445Z,4.03
2023-05-18T01:10:20.608Z,4.20
2023-05-18T01:13:07.651Z,4.17
2023-05-18T01:15:37.288Z,4.13
2023-05-18T01:18:10.202Z,3.97
2023-05-18T01:20:57.416Z,4.10
2023-05-18T01:23:28.019Z,4.10
2023-05-18T01:25:56.901Z,3.83
2023-05-18T01:28:28.330Z,4.33
2023-05-18T01:30:56.060Z,4.70
2023-05-18T01:33:25.305Z,4.00
2023-05-18T01:35:53.698Z,3.90
2023-05-18T01:38:22.637Z,4.17
2023-05-18T01:41:00.813Z,3.90
2023-05-18T01:43:32.460Z,4.20
2023-05-18T01:46:01.796Z,3.87
2023-05-18T01:48:29.365Z,3.87
2023-05-18T01:50:58.521Z,4.07
2023-05-18T01:53:27.489Z,3.90
2023-05-18T01:55:55.929Z,4.40
2023-05-18T01:58:23.972Z,4.67
2023-05-18T02:00:51.875Z,4.80
2023-05-18T02:03:19.400Z,4.40
2023-05-18T02:05:46.820Z,3.90
2023-05-18T02:08:14.226Z,3.70
2023-05-18T02:10:41.648Z,4.27
2023-05-18T02:13:09.399Z,4.70
2023-05-18T02:15:37.157Z,3.87
2023-05-18T02:18:04.725Z,4.50
2023-05-18T02:20:33.336Z,4.40
2023-05-18T02:23:00.933Z,4.70
2023-05-18T02:25:28.567Z,3.83
2023-05-18T02:27:57.294Z,3.63
2023-05-18T02:30:24.636Z,4.20
2023-05-18T02:32:52.489Z,3.87
2023-05-18T02:35:19.835Z,4.00
2023-05-18T02:37:47.268Z,3.40
2023-05-18T02:40:15.721Z,3.77
2023-05-18T02:42:43.137Z,4.23
2023-05-18T02:45:10.620Z,3.20
2023-05-18T02:47:38.237Z,4.27
2023-05-18T02:50:05.826Z,4.27
2023-05-18T02:52:33.819Z,4.50
2023-05-18T02:55:01.230Z,3.63
2023-05-18T02:57:28.722Z,4.10
2023-05-18T02:59:57.233Z,4.10
2023-05-18T03:02:24.874Z,3.50
2023-05-18T03:04:54.066Z,3.97
2023-05-18T03:07:21.830Z,3.97
2023-05-18T03:09:49.244Z,4.43
2023-05-18T03:12:16.587Z,4.63
2023-05-18T03:14:44.272Z,4.50
2023-05-18T03:17:11.828Z,5.07
2023-05-18T03:19:39.808Z,3.97
2023-05-18T03:22:07.238Z,4.70
2023-05-18T03:24:36.299Z,4.77
2023-05-18T03:27:04.188Z,4.30
2023-05-18T03:29:31.793Z,4.37
2023-05-18T03:31:59.679Z,4.70
2023-05-18T03:34:27.050Z,4.27
2023-05-18T03:36:54.883Z,4.27
2023-05-18T03:39:22.301Z,5.20
2023-05-18T03:41:49.640Z,4.00
2023-05-18T03:44:17.134Z,3.77
2023-05-18T03:46:44.620Z,5.57
2023-05-18T03:49:12.077Z,4.00
2023-05-18T03:51:39.465Z,4.07
2023-05-18T03:54:07.282Z,4.40
2023-05-18T03:56:34.627Z,4.47
2023-05-18T03:59:03.232Z,4.57
2023-05-18T04:01:32.437Z,4.43
2023-05-18T04:04:01.081Z,4.20
2023-05-18T04:06:28.462Z,4.37
2023-05-18T04:08:56.042Z,4.30
2023-05-18T04:11:23.403Z,4.23
2023-05-18T04:13:50.862Z,4.13
2023-05-18T04:16:19.319Z,4.20
2023-05-18T04:18:46.885Z,4.47
2023-05-18T04:21:15.793Z,3.77
2023-05-18T04:23:43.166Z,3.87
2023-05-18T04:26:10.830Z,4.20
2023-05-18T04:28:38.187Z,3.70
2023-05-18T04:31:06.218Z,3.77
2023-05-18T04:33:34.314Z,3.63
2023-05-18T04:36:03.376Z,3.93
2023-05-18T04:38:32.444Z,3.70
2023-05-18T04:41:00.469Z,3.80
2023-05-18T04:43:28.155Z,4.00
2023-05-18T04:45:56.319Z,4.03
2023-05-18T04:48:26.187Z,3.60
2023-05-18T04:50:55.335Z,3.47
2023-05-18T04:53:23.390Z,4.23
2023-05-18T04:55:50.815Z,4.00
2023-05-18T04:58:18.316Z,4.20
2023-05-18T05:00:46.099Z,4.10
2023-05-18T05:03:13.906Z,4.40
2023-05-18T05:05:41.469Z,3.53
2023-05-18T05:08:08.918Z,3.70
2023-05-18T05:10:36.438Z,4.10
2023-05-18T05:13:04.133Z,3.20
2023-05-18T05:15:31.665Z,3.50
2023-05-18T05:17:59.448Z,4.00
2023-05-18T05:20:26.850Z,3.23
2023-05-18T05:22:54.324Z,3.60
2023-05-18T05:25:21.808Z,4.17
2023-05-18T05:27:49.271Z,3.47
2023-05-18T05:30:17.166Z,3.23
2023-05-18T05:32:44.618Z,3.80
2023-05-18T05:35:12.275Z,3.57
2023-05-18T05:37:39.782Z,3.87
2023-05-18T05:40:07.734Z,3.90
2023-05-18T05:42:35.817Z,3.73
2023-05-18T05:45:03.678Z,3.80
2023-05-18T05:47:31.174Z,3.60
2023-05-18T05:49:58.589Z,2.83
2023-05-18T05:52:27.716Z,3.60
2023-05-18T05:54:55.548Z,3.27
2023-05-18T05:57:23.002Z,3.20
2023-05-18T05:59:50.429Z,3.90
2023-05-18T06:02:17.928Z,3.07
2023-05-18T06:04:45.355Z,3.00
2023-05-18T06:07:12.823Z,3.23
2023-05-18T06:09:40.255Z,3.50
2023-05-18T06:12:07.884Z,2.90
2023-05-18T06:14:35.407Z,3.20
2023-05-18T06:17:03.365Z,3.13
2023-05-18T06:19:30.957Z,3.83
2023-05-18T06:21:58.396Z,3.37
2023-05-18T06:24:25.885Z,2.93
2023-05-18T06:26:53.308Z,2.80
2023-05-18T06:29:21.290Z,3.40
2023-05-18T06:31:48.871Z,2.87
2023-05-18T06:34:16.952Z,3.00
2023-05-18T06:36:44.404Z,3.50
2023-05-18T06:39:11.897Z,3.00
2023-05-18T06:41:39.328Z,4.10
2023-05-18T06:44:07.202Z,3.90
2023-05-18T06:46:34.735Z,3.50
2023-05-18T06:49:02.312Z,2.87
2023-05-18T06:51:29.708Z,2.97
2023-05-18T06:53:57.220Z,3.27
2023-05-18T06:56:24.660Z,2.90
2023-05-18T06:58:52.124Z,3.03
2023-05-18T07:01:19.607Z,3.43
2023-05-18T07:03:47.154Z,3.33
2023-05-18T07:06:14.604Z,2.60
2023-05-18T07:08:42.087Z,3.30
2023-05-18T07:11:09.686Z,2.90
2023-05-18T07:13:37.103Z,3.23
2023-05-18T07:16:04.623Z,3.80
2023-05-18T07:18:32.246Z,2.83
2023-05-18T07:21:00.042Z,7.17
2023-05-18T07:23:28.450Z,4.43
2023-05-18T07:25:55.971Z,3.70
2023-05-18T07:28:23.955Z,3.43
2023-05-18T07:30:51.372Z,4.60
2023-05-18T07:33:18.857Z,3.63
2023-05-18T07:35:46.276Z,3.80
2023-05-18T07:38:13.739Z,3.70
2023-05-18T07:40:41.548Z,3.83
2023-05-18T07:43:08.990Z,3.90
2023-05-18T07:45:36.487Z,3.23
2023-05-18T07:48:04.402Z,3.60
2023-05-18T07:50:31.793Z,3.00
2023-05-18T07:52:59.252Z,2.93
2023-05-18T07:55:27.055Z,3.40
2023-05-18T07:57:54.490Z,3.00
2023-05-18T08:00:21.932Z,3.20
2023-05-18T08:02:49.717Z,2.70
2023-05-18T08:05:18.314Z,3.00
2023-05-18T08:07:45.766Z,3.37
2023-05-18T08:10:13.194Z,3.40
2023-05-18T08:12:40.907Z,3.00
2023-05-18T08:15:09.113Z,2.60
2023-05-18T08:17:36.572Z,3.70
2023-05-18T08:20:04.811Z,3.17
2023-05-18T08:22:32.666Z,2.87
2023-05-18T08:25:01.180Z,2.93
2023-05-18T08:27:29.341Z,3.50
2023-05-18T08:29:56.842Z,3.00
2023-05-18T08:32:24.602Z,3.10
2023-05-18T08:34:52.231Z,3.20
2023-05-18T08:37:19.831Z,3.10
2023-05-18T08:39:47.276Z,3.10
2023-05-18T08:42:25.895Z,3.57
2023-05-18T08:44:54.105Z,3.47
2023-05-18T08:47:23.265Z,2.67
2023-05-18T08:49:52.776Z,3.70
2023-05-18T08:52:21.759Z,3.43
2023-05-18T08:54:50.635Z,2.87
2023-05-18T08:57:18.884Z,2.83
2023-05-18T08:59:46.313Z,3.30
2023-05-18T09:02:14.155Z,3.50
2023-05-18T09:04:42.475Z,3.13
2023-05-18T09:07:11.159Z,3.10
2023-05-18T09:09:39.066Z,3.20
2023-05-18T09:12:07.196Z,3.70
2023-05-18T09:14:34.614Z,3.13
2023-05-18T09:17:02.117Z,2.97
2023-05-18T09:19:29.807Z,2.73
2023-05-18T09:21:57.193Z,3.53
2023-05-18T09:24:25.007Z,3.00
2023-05-18T09:26:52.795Z,3.10
2023-05-18T09:29:21.016Z,3.00
2023-05-18T09:31:49.011Z,2.70
2023-05-18T09:34:18.249Z,3.30
2023-05-18T09:36:52.114Z,3.60
2023-05-18T09:39:19.551Z,3.13
2023-05-18T09:41:46.996Z,3.20
2023-05-18T09:44:15.028Z,3.50
2023-05-18T09:46:42.523Z,2.87
2023-05-18T09:49:09.901Z,3.57
2023-05-18T09:51:38.896Z,2.90
2023-05-18T09:54:08.461Z,3.80
2023-05-18T09:56:36.586Z,3.30
2023-05-18T09:59:14.014Z,3.20
2023-05-18T10:02:05.179Z,3.27
2023-05-18T10:04:36.737Z,2.73
2023-05-18T10:07:07.451Z,3.27
2023-05-18T10:09:34.888Z,2.70
2023-05-18T10:12:02.414Z,3.60
2023-05-18T10:14:33.046Z,2.90
2023-05-18T10:17:11.189Z,2.97
2023-05-18T10:19:30.712Z,3.27
2023-05-18T10:21:59.686Z,3.40
2023-05-18T10:24:27.211Z,3.73
2023-05-18T10:26:57.664Z,2.87
2023-05-18T10:29:25.261Z,3.27
2023-05-18T10:31:54.812Z,3.50
2023-05-18T10:34:24.358Z,3.47
2023-05-18T10:36:51.789Z,3.13
2023-05-18T10:39:19.759Z,2.87
2023-05-18T10:41:48.709Z,3.37
2023-05-18T10:44:16.466Z,3.60
2023-05-18T10:46:43.975Z,3.77
2023-05-18T10:49:13.402Z,3.27
2023-05-18T10:51:46.167Z,3.57
2023-05-18T10:54:14.457Z,3.50
2023-05-18T10:56:43.436Z,3.77
2023-05-18T10:59:11.662Z,3.40
2023-05-18T11:01:41.863Z,4.00
2023-05-18T11:04:09.372Z,3.33
2023-05-18T11:06:37.128Z,4.10
2023-05-18T11:09:05.024Z,3.10
2023-05-18T11:11:33.986Z,3.33
2023-05-18T11:14:02.710Z,3.70
2023-05-18T11:16:35.627Z,3.23
2023-05-18T11:19:07.087Z,3.67
2023-05-18T11:21:40.691Z,3.30
2023-05-18T11:24:09.679Z,3.00
2023-05-18T11:26:47.381Z,3.20
2023-05-18T11:29:18.408Z,3.40
2023-05-18T11:31:46.535Z,3.33
2023-05-18T11:34:32.541Z,3.23
2023-05-18T11:37:00.341Z,3.50
2023-05-18T11:39:27.813Z,2.60
2023-05-18T11:42:08.171Z,3.20
2023-05-18T11:44:35.869Z,3.50
2023-05-18T11:47:10.836Z,3.33
2023-05-18T11:49:39.841Z,2.63
2023-05-18T11:52:08.316Z,3.40
2023-05-18T11:54:37.301Z,3.30
2023-05-18T11:57:04.901Z,3.70
2023-05-18T11:59:33.115Z,2.93
2023-05-18T12:02:01.629Z,3.13
2023-05-18T12:04:29.834Z,2.93
2023-05-18T12:06:58.278Z,2.70
2023-05-18T12:09:26.258Z,3.30
2023-05-18T12:11:53.687Z,3.33
2023-05-18T12:14:21.259Z,2.83
2023-05-18T12:16:49.707Z,3.40
2023-05-18T12:19:19.592Z,3.00
2023-05-18T12:21:47.505Z,3.10
2023-05-18T12:24:15.099Z,2.90
2023-05-18T12:26:42.547Z,2.87
2023-05-18T12:29:11.151Z,2.70
2023-05-18T12:31:41.285Z,2.97
2023-05-18T12:34:11.755Z,3.00
2023-05-18T12:36:43.460Z,3.00
2023-05-18T12:39:13.018Z,3.10
2023-05-18T12:41:40.449Z,3.00
2023-05-18T12:44:07.981Z,3.30
2023-05-18T12:46:35.535Z,3.10
2023-05-18T12:49:04.412Z,3.57
2023-05-18T12:51:35.967Z,3.00
2023-05-18T12:54:03.885Z,3.20
2023-05-18T12:56:51.883Z,2.53
2023-05-18T12:59:22.004Z,2.90
2023-05-18T13:01:49.526Z,2.77
2023-05-18T13:04:17.077Z,3.60
2023-05-18T13:06:44.962Z,3.00
2023-05-18T13:09:12.855Z,3.40
2023-05-18T13:11:40.354Z,3.10
2023-05-18T13:14:10.441Z,3.00
2023-05-18T13:16:42.396Z,2.90
2023-05-18T13:19:10.955Z,2.83
2023-05-18T13:21:38.928Z,3.03
2023-05-18T13:24:06.818Z,3.30
2023-05-18T13:26:34.267Z,3.70
2023-05-18T13:29:01.713Z,3.40
2023-05-18T13:31:32.274Z,2.97
2023-05-18T13:33:59.747Z,2.80
2023-05-18T13:36:28.813Z,3.03
2023-05-18T13:38:56.239Z,2.93
2023-05-18T13:41:23.690Z,2.73
2023-05-18T13:43:51.134Z,3.10
2023-05-18T13:46:19.941Z,3.20
2023-05-18T13:48:47.553Z,3.10
2023-05-18T13:51:15.239Z,2.57
2023-05-18T13:53:43.574Z,2.93
2023-05-18T13:56:11.096Z,2.87
2023-05-18T13:58:38.519Z,3.60
2023-05-18T14:01:07.873Z,2.90
2023-05-18T14:03:36.415Z,3.00
2023-05-18T14:06:03.982Z,3.20
2023-05-18T14:08:31.412Z,2.80
2023-05-18T14:10:58.848Z,2.60
2023-05-18T14:13:26.302Z,3.30
2023-05-18T14:15:53.754Z,3.40
2023-05-18T14:18:21.166Z,3.00
2023-05-18T14:20:48.671Z,2.90
2023-05-18T14:23:16.115Z,2.93
2023-05-18T14:25:45.262Z,3.07
2023-05-18T14:28:13.289Z,2.93
2023-05-18T14:30:41.048Z,2.70
2023-05-18T14:33:08.442Z,2.63
2023-05-18T14:35:35.873Z,2.63
2023-05-18T14:38:03.303Z,3.80
2023-05-18T14:40:31.004Z,3.40
2023-05-18T14:42:58.628Z,2.90
2023-05-18T14:45:26.839Z,3.00
2023-05-18T14:47:54.292Z,2.50
2023-05-18T14:50:22.182Z,3.37
2023-05-18T14:52:49.607Z,3.77
2023-05-18T14:55:17.042Z,2.80
2023-05-18T14:57:44.788Z,3.07
2023-05-18T15:00:12.786Z,2.90
2023-05-18T15:02:40.325Z,3.70
2023-05-18T15:05:07.923Z,2.70
2023-05-18T15:07:35.357Z,3.20
2023-05-18T15:10:02.843Z,2.53
2023-05-18T15:12:30.575Z,2.83
2023-05-18T15:14:58.031Z,2.50
2023-05-18T15:17:25.454Z,2.80
2023-05-18T15:19:52.893Z,2.53
2023-05-18T15:22:20.712Z,3.00
2023-05-18T15:24:48.146Z,2.80
2023-05-18T15:27:15.586Z,3.67
2023-05-18T15:29:43.026Z,2.47
2023-05-18T15:32:10.484Z,2.90
2023-05-18T15:34:37.978Z,2.80
2023-05-18T15:37:05.562Z,2.50
2023-05-18T15:39:32.946Z,3.20
2023-05-18T15:42:00.406Z,3.07
2023-05-18T15:44:29.486Z,3.40
2023-05-18T15:46:57.245Z,2.93
2023-05-18T15:49:25.234Z,3.20
2023-05-18T15:51:52.680Z,2.90
2023-05-18T15:54:20.112Z,2.93
2023-05-18T15:56:47.570Z,2.67
2023-05-18T15:59:15.002Z,3.47
2023-05-18T16:01:42.588Z,2.93
2023-05-18T16:04:10.134Z,2.83
2023-05-18T16:06:37.908Z,3.20
2023-05-18T16:09:06.120Z,3.30
2023-05-18T16:11:35.269Z,3.37
2023-05-18T16:14:03.701Z,2.50
2023-05-18T16:16:31.235Z,3.10
2023-05-18T16:19:00.535Z,2.90
2023-05-18T16:21:27.945Z,2.77
2023-05-18T16:23:56.282Z,3.07
2023-05-18T16:26:23.686Z,3.00
2023-05-18T16:28:51.126Z,2.87
2023-05-18T16:31:18.573Z,2.93
2023-05-18T16:33:46.092Z,3.00
2023-05-18T16:36:13.541Z,2.60
2023-05-18T16:38:40.972Z,2.40
2023-05-18T16:41:08.413Z,2.93
2023-05-18T16:43:36.228Z,2.70
2023-05-18T16:46:04.065Z,2.87
2023-05-18T16:48:31.469Z,2.53
2023-05-18T16:50:58.892Z,3.03
2023-05-18T16:53:26.411Z,2.53
2023-05-18T16:55:53.900Z,2.43
2023-05-18T16:58:21.359Z,2.33
2023-05-18T17:00:48.890Z,3.10
2023-05-18T17:03:17.641Z,2.73
2023-05-18T17:05:45.117Z,2.30
2023-05-18T17:08:12.797Z,2.40
2023-05-18T17:10:40.872Z,3.10
2023-05-18T17:13:09.270Z,3.03
2023-05-18T17:15:36.736Z,2.83
2023-05-18T17:18:04.260Z,2.80
2023-05-18T17:20:31.780Z,3.60
2023-05-18T17:23:01.734Z,2.80
2023-05-18T17:25:28.448Z,2.70
2023-05-18T17:27:55.875Z,2.77
2023-05-18T17:30:23.383Z,2.73
2023-05-18T17:32:50.958Z,3.00
2023-05-18T17:35:18.453Z,2.57
2023-05-18T17:37:47.508Z,2.27
2023-05-18T17:40:15.149Z,3.13
2023-05-18T17:42:43.085Z,2.87
2023-05-18T17:45:10.822Z,2.50
2023-05-18T17:47:38.346Z,2.80
2023-05-18T17:50:05.976Z,2.63
2023-05-18T17:52:33.418Z,2.60
2023-05-18T17:55:01.333Z,2.47
2023-05-18T17:57:30.035Z,3.23
2023-05-18T17:59:57.461Z,2.63
2023-05-18T18:02:24.911Z,3.40
2023-05-18T18:04:52.372Z,3.53
2023-05-18T18:07:19.783Z,2.60
2023-05-18T18:09:47.225Z,2.70
2023-05-18T18:12:14.723Z,2.80
2023-05-18T18:14:42.152Z,2.90
2023-05-18T18:17:09.749Z,3.10
2023-05-18T18:19:37.238Z,2.93
2023-05-18T18:22:04.735Z,2.70
2023-05-18T18:24:32.562Z,2.63
2023-05-18T18:26:59.996Z,3.20
2023-05-18T18:29:29.034Z,2.70
2023-05-18T18:31:57.435Z,4.37
2023-05-18T18:34:24.876Z,2.97
2023-05-18T18:36:52.309Z,2.53
2023-05-18T18:39:19.751Z,2.63
2023-05-18T18:41:47.177Z,2.73
2023-05-18T18:44:14.650Z,2.97
2023-05-18T18:46:42.102Z,3.03
2023-05-18T18:49:09.518Z,4.70
2023-05-18T18:51:36.954Z,2.60
2023-05-18T18:54:04.473Z,2.70
2023-05-18T18:56:32.388Z,3.27
2023-05-18T18:58:59.837Z,2.80
2023-05-18T19:01:27.338Z,2.50
2023-05-18T19:03:55.406Z,3.03
2023-05-18T19:06:24.076Z,2.73
2023-05-18T19:08:53.208Z,2.70
2023-05-18T19:11:22.324Z,2.63
2023-05-18T19:13:49.844Z,2.97
2023-05-18T19:16:17.975Z,2.50
2023-05-18T19:18:46.674Z,2.80
2023-05-18T19:21:14.085Z,2.80
2023-05-18T19:23:41.528Z,2.70
2023-05-18T19:26:09.248Z,2.27
2023-05-18T19:28:37.194Z,2.50
2023-05-18T19:31:04.619Z,2.40
2023-05-18T19:33:32.461Z,2.50
2023-05-18T19:35:59.913Z,2.60
2023-05-18T19:38:27.733Z,3.00
2023-05-18T19:40:55.597Z,2.27
2023-05-18T19:43:23.408Z,2.70
2023-05-18T19:45:51.063Z,2.40
2023-05-18T19:48:18.634Z,2.50
2023-05-18T19:50:46.154Z,3.30
2023-05-18T19:53:13.675Z,3.70
2023-05-18T19:55:41.304Z,2.90
2023-05-18T19:58:09.178Z,3.63
2023-05-18T20:00:37.775Z,3.57
2023-05-18T20:03:05.938Z,2.90
2023-05-18T20:05:33.385Z,3.13
2023-05-18T20:08:02.460Z,3.33
2023-05-18T20:10:30.123Z,2.90
2023-05-18T20:12:58.049Z,3.03
2023-05-18T20:15:25.946Z,3.10
2023-05-18T20:17:53.561Z,3.30
2023-05-18T20:20:21.021Z,3.50
2023-05-18T20:22:48.479Z,3.00
2023-05-18T20:25:15.992Z,3.10
2023-05-18T20:27:43.417Z,3.70
2023-05-18T20:30:10.901Z,3.43
2023-05-18T20:32:38.364Z,3.10
2023-05-18T20:35:05.854Z,2.80
2023-05-18T20:37:34.968Z,3.23
2023-05-18T20:40:04.503Z,3.00
2023-05-18T20:42:36.219Z,3.30
2023-05-18T20:45:03.653Z,3.20
2023-05-18T20:47:32.246Z,2.77
2023-05-18T20:49:59.776Z,2.80
2023-05-18T20:52:28.967Z,3.40
2023-05-18T20:54:56.409Z,2.90
2023-05-18T20:57:23.852Z,3.50
2023-05-18T20:59:51.353Z,3.13
2023-05-18T21:02:19.563Z,2.93
2023-05-18T21:04:46.992Z,3.40
2023-05-18T21:07:16.302Z,4.60
2023-05-18T21:09:43.765Z,6.80
2023-05-18T21:12:11.263Z,4.00
2023-05-18T21:14:38.701Z,3.60
2023-05-18T21:17:06.245Z,4.97
2023-05-18T21:19:33.708Z,4.60
2023-05-18T21:22:01.206Z,7.03
2023-05-18T21:24:28.666Z,5.70
2023-05-18T21:26:56.173Z,5.30
2023-05-18T21:29:24.420Z,4.10
2023-05-18T21:31:51.971Z,5.00
2023-05-18T21:34:19.485Z,5.93
2023-05-18T21:36:46.994Z,4.50
2023-05-18T21:39:14.423Z,9.77
2023-05-18T21:41:42.433Z,6.03
2023-05-18T21:44:10.391Z,5.60
2023-05-18T21:46:38.018Z,3.87
2023-05-18T21:49:12.276Z,3.80
2023-05-18T21:51:39.877Z,4.60
2023-05-18T21:54:07.291Z,4.13
2023-05-18T21:56:36.570Z,4.43
2023-05-18T21:59:04.004Z,4.23
2023-05-18T22:01:31.457Z,3.40
2023-05-18T22:03:58.942Z,4.30
2023-05-18T22:06:26.328Z,4.00
2023-05-18T22:08:53.752Z,4.03
2023-05-18T22:11:21.777Z,3.87
2023-05-18T22:13:49.196Z,4.27
2023-05-18T22:16:16.656Z,4.40
2023-05-18T22:18:44.130Z,4.30
2023-05-18T22:21:11.541Z,4.23
2023-05-18T22:23:39.170Z,4.00
2023-05-18T22:26:06.959Z,4.23
2023-05-18T22:28:34.379Z,3.97
2023-05-18T22:31:02.220Z,3.40
2023-05-18T22:33:29.620Z,4.13
2023-05-18T22:35:57.498Z,3.93
2023-05-18T22:38:25.806Z,3.60
2023-05-18T22:40:54.345Z,3.87
2023-05-18T22:43:21.968Z,3.90
2023-05-18T22:45:49.545Z,3.27
2023-05-18T22:48:17.101Z,4.10
2023-05-18T22:50:44.989Z,3.30
2023-05-18T22:53:12.795Z,3.43
2023-05-18T22:55:40.263Z,3.90
2023-05-18T22:58:08.109Z,3.70
2023-05-18T23:00:35.533Z,3.30
2023-05-18T23:03:03.003Z,4.30
2023-05-18T23:05:32.515Z,3.70
2023-05-18T23:08:01.791Z,2.73
2023-05-18T23:10:29.397Z,4.20
2023-05-18T23:12:58.148Z,3.10
2023-05-18T23:15:25.857Z,3.37
2023-05-18T23:17:55.015Z,3.27
2023-05-18T23:20:22.822Z,3.10
2023-05-18T23:22:50.239Z,3.17
2023-05-18T23:25:18.088Z,3.23
2023-05-18T23:27:45.850Z,3.70
2023-05-18T23:30:13.358Z,3.00
2023-05-18T23:32:41.130Z,3.40
2023-05-18T23:35:09.049Z,3.10
2023-05-18T23:37:38.012Z,3.03
2023-05-18T23:40:06.224Z,3.40
2023-05-18T23:42:33.728Z,3.77
2023-05-18T23:45:01.343Z,4.00
2023-05-18T23:47:28.879Z,3.73
2023-05-18T23:49:56.923Z,3.70
2023-05-18T23:52:26.608Z,3.33
2023-05-18T23:54:55.703Z,3.73
2023-05-18T23:57:26.160Z,3.23
2023-05-18T23:59:53.871Z,3.50
